WetterOnline ( https://www.wetteronline.de )

Wetter aktuell Heidmühlen

Aktuelles Wetter: Itzehoe (26m)

6-stündlich | Neueste Meldungen
Ortszeit Temperatur Wetter
Mo, 17.05. 20:00 13.4° C bewölkt
Mo, 17.05. 14:00 14.9° C leicht bewölkt
Mo, 17.05. 8:00 10.0° C fast wolkenlos
Mo, 17.05. 2:00 6.7° C bedeckt
So, 16.05. 20:00 13.9° C wolkenlos
So, 16.05. 14:00 13.7° C wolkig
So, 16.05. 8:00 10.0° C bedeckt
So, 16.05. 2:00 6.5° C Nebel
Ortszeit Temperatur Wetter
Di, 18.05. 1:30 10.1° C bedeckt
Di, 18.05. 1:20 10.1° C bedeckt
Di, 18.05. 1:10 10.3° C bedeckt
Di, 18.05. 1:00 10.5° C bedeckt
Di, 18.05. 0:50 10.5° C bedeckt
Di, 18.05. 0:40 10.6° C bedeckt
Di, 18.05. 0:30 10.8° C bedeckt
Di, 18.05. 0:00 11.1° C bewölkt
Mo, 17.05. 23:30 11.3° C bewölkt
Mo, 17.05. 23:00 12.2° C bedeckt
Mo, 17.05. 22:30 12.6° C bedeckt
Ortszeit Relative Feuchte Sichtweite
Mo, 17.05. 20:00 76% 45 km
Mo, 17.05. 14:00 68% 30 km
Mo, 17.05. 8:00 87% 21 km
Mo, 17.05. 2:00 96% 6 km
So, 16.05. 20:00 71% >70 km
So, 16.05. 14:00 78% 55 km
So, 16.05. 8:00 95% 11 km
So, 16.05. 2:00 97% 0.2 km
Ortszeit Relative Feuchte Sichtweite
Di, 18.05. 1:30 86% 28 km
Di, 18.05. 1:20 86% -
Di, 18.05. 1:10 84% -
Di, 18.05. 1:00 86% 30 km
Di, 18.05. 0:50 86% -
Di, 18.05. 0:40 86% -
Di, 18.05. 0:30 86% 30 km
Di, 18.05. 0:00 85% 30 km
Mo, 17.05. 23:30 86% 30 km
Mo, 17.05. 23:00 85% 30 km
Mo, 17.05. 22:30 81% 40 km
Ortszeit Niederschlagsmenge Niederschlagsart
Mo, 17.05. 20:00 0.5 l/m2 in 12 Std. Regen
Mo, 17.05. 14:00 0.5 l/m2 in 6 Std. Regen
Mo, 17.05. 8:00 0.5 l/m2 in 12 Std. -
Mo, 17.05. 2:00 0.5 l/m2 in 6 Std. Regen
So, 16.05. 20:00 3 l/m2 in 12 Std. Regen
So, 16.05. 14:00 2 l/m2 in 6 Std. Regen
So, 16.05. 8:00 0.0 l/m2 in 12 Std. -
So, 16.05. 2:00 0.0 l/m2 in 6 Std. -
Ortszeit Niederschlagsmenge Niederschlagsart
Di, 18.05. 1:30 0.0 l/m2 in 1 Std. -
Di, 18.05. 1:20 keine Meldung -
Di, 18.05. 1:10 keine Meldung -
Di, 18.05. 1:00 0.0 l/m2 in 1 Std. -
Di, 18.05. 0:50 keine Meldung -
Di, 18.05. 0:40 keine Meldung -
Di, 18.05. 0:30 0.0 l/m2 in 1 Std. -
Di, 18.05. 0:00 0.1 l/m2 in 1 Std. Regen
Mo, 17.05. 23:30 0.0 l/m2 in 1 Std. -
Mo, 17.05. 23:00 0.0 l/m2 in 1 Std. -
Mo, 17.05. 22:30 0.0 l/m2 in 1 Std. -
Ortszeit Stärke Spitze Richtung
km/h Bft. km/h Grad Sektor
Mo, 17.05. 20:00 2 1 19 300° NW
Mo, 17.05. 14:00 9 2 24 210° SW
Mo, 17.05. 8:00 2 1 6 190° S
Mo, 17.05. 2:00 0 0 18 - -
So, 16.05. 20:00 6 1 26 230° SW
So, 16.05. 14:00 7 2 22 150° SO
So, 16.05. 8:00 6 1 11 160° S
So, 16.05. 2:00 2 1 9 60° NO
Ortszeit Stärke Spitze Richtung
km/h Bft. km/h Grad Sektor
Di, 18.05. 1:30 7 2 18 300° NW
Di, 18.05. 1:20 7 2 - 300° NW
Di, 18.05. 1:10 11 2 - 310° NW
Di, 18.05. 1:00 9 2 17 310° NW
Di, 18.05. 0:50 9 2 - 310° NW
Di, 18.05. 0:40 7 2 - 300° NW
Di, 18.05. 0:30 7 2 11 300° NW
Di, 18.05. 0:00 7 2 18 310° NW
Mo, 17.05. 23:30 11 2 17 310° NW
Mo, 17.05. 23:00 7 2 13 320° NW
Mo, 17.05. 22:30 7 2 14 330° NW
Ortszeit Untergrenze Bedeckung Gattung
total tief tief mittel hoch
Mo, 17.05. 20:00 1800 m 7/8 7/8 - - -
Mo, 17.05. 14:00 630 m 5/8 2/8 - - -
Mo, 17.05. 8:00 6600 m 1/8 1/8 - - -
Mo, 17.05. 2:00 4200 m 8/8 8/8 - - -
So, 16.05. 20:00 - 0/8 0/8 - - -
So, 16.05. 14:00 1410 m 7/8 1/8 - - -
So, 16.05. 8:00 1800 m 8/8 8/8 - - -
So, 16.05. 2:00 750 m 2/8 1/8 - - -
Ortszeit Bedeckungsgrad in Achtel und Wolkenuntergrenze
Di, 18.05. 1:30 3(930m) 6(1470m) 8(1800m)
Di, 18.05. 1:20 3(930m) 6(1470m) 8(1800m)
Di, 18.05. 1:10 2(810m) 5(1260m) 8(1800m)
Di, 18.05. 1:00 3(810m) 5(1110m) 8(1500m)
Di, 18.05. 0:50 3(810m) 5(1110m) 8(1500m)
Di, 18.05. 0:40 1(750m) 4(1320m) 8(1500m)
Di, 18.05. 0:30 4(750m) 6(1380m) 8(1500m)
Di, 18.05. 0:00 5(660m) 6(930m) 7(1800m)
Mo, 17.05. 23:30 5(960m) 7(1500m) 7(3600m)
Mo, 17.05. 23:00 8(1500m) 3(1200m) 8(1500m)
Mo, 17.05. 22:30 7(1470m) 8(1500m)
Ortszeit Luftdruck NN (hPa) Tendenz (hPa in 3 Std.)
Mo, 17.05. 20:00 1004 + 1,0
Mo, 17.05. 14:00 1002 + 0,6
Mo, 17.05. 8:00 1001 + 0,7
Mo, 17.05. 2:00 1000 0,0
So, 16.05. 20:00 1000 - 0,9
So, 16.05. 14:00 1000 - 0,4
So, 16.05. 8:00 1001 + 0,2
So, 16.05. 2:00 1001 - 0,8
Ortszeit Luftdruck NN (hPa) Tendenz (hPa in 3 Std.)
Di, 18.05. 1:30 1007 + 1,5
Di, 18.05. 1:20 1007 keine Meldung
Di, 18.05. 1:10 1007 keine Meldung
Di, 18.05. 1:00 1007 + 1,6
Di, 18.05. 0:50 1007 keine Meldung
Di, 18.05. 0:40 1006 keine Meldung
Di, 18.05. 0:30 1006 + 1,7
Di, 18.05. 0:00 1006 + 1,6
Mo, 17.05. 23:30 1006 + 1,4
Mo, 17.05. 23:00 1005 + 1,5
Mo, 17.05. 22:30 1005 + 1,5
Ortszeit Schneehöhe (cm)
Mo, 17.05. 20:00 -
Mo, 17.05. 14:00 -
Mo, 17.05. 8:00 -
Mo, 17.05. 2:00 -
So, 16.05. 20:00 -
So, 16.05. 14:00 -
So, 16.05. 8:00 -
So, 16.05. 2:00 -
Ortszeit Schneehöhe (cm)
Di, 18.05. 1:30 -
Di, 18.05. 1:20 -
Di, 18.05. 1:10 -
Di, 18.05. 1:00 -
Di, 18.05. 0:50 -
Di, 18.05. 0:40 -
Di, 18.05. 0:30 -
Di, 18.05. 0:00 -
Mo, 17.05. 23:30 -
Mo, 17.05. 23:00 -
Mo, 17.05. 22:30 -
Link zu dieser Seite / Seite empfehlen

Das Wetter in ...